sensor_id;sensor_type;location;lat;lon;timestamp;P1;durP1;ratioP1;P2;durP2;ratioP2
35257;SDS011;21385;50.878;8.050;2022-08-24T00:00:32;9.45;;;3.28;;
35257;SDS011;21385;50.878;8.050;2022-08-24T00:02:59;5.40;;;3.40;;
35257;SDS011;21385;50.878;8.050;2022-08-24T00:05:25;6.53;;;3.78;;
35257;SDS011;21385;50.878;8.050;2022-08-24T00:07:50;6.32;;;3.90;;
35257;SDS011;21385;50.878;8.050;2022-08-24T00:10:16;5.93;;;3.67;;
35257;SDS011;21385;50.878;8.050;2022-08-24T00:12:45;6.38;;;3.67;;
35257;SDS011;21385;50.878;8.050;2022-08-24T00:15:11;8.02;;;4.05;;
35257;SDS011;21385;50.878;8.050;2022-08-24T00:17:39;6.10;;;3.95;;
35257;SDS011;21385;50.878;8.050;2022-08-24T00:20:05;8.60;;;3.88;;
35257;SDS011;21385;50.878;8.050;2022-08-24T00:22:33;4.57;;;3.58;;
35257;SDS011;21385;50.878;8.050;2022-08-24T00:24:58;6.45;;;3.90;;
35257;SDS011;21385;50.878;8.050;2022-08-24T00:27:24;8.70;;;4.88;;
35257;SDS011;21385;50.878;8.050;2022-08-24T00:29:50;4.72;;;3.50;;
35257;SDS011;21385;50.878;8.050;2022-08-24T00:32:15;5.65;;;4.47;;
35257;SDS011;21385;50.878;8.050;2022-08-24T00:34:41;6.47;;;4.32;;
35257;SDS011;21385;50.878;8.050;2022-08-24T00:37:07;7.78;;;5.38;;
35257;SDS011;21385;50.878;8.050;2022-08-24T00:39:32;9.13;;;5.30;;
35257;SDS011;21385;50.878;8.050;2022-08-24T00:41:58;11.55;;;5.97;;
35257;SDS011;21385;50.878;8.050;2022-08-24T00:44:24;8.10;;;5.53;;
35257;SDS011;21385;50.878;8.050;2022-08-24T00:47:24;11.07;;;6.43;;
35257;SDS011;21385;50.878;8.050;2022-08-24T00:49:53;7.30;;;5.28;;
35257;SDS011;21385;50.878;8.050;2022-08-24T00:52:23;8.20;;;5.53;;
35257;SDS011;21385;50.878;8.050;2022-08-24T00:54:53;12.82;;;5.70;;
35257;SDS011;21385;50.878;8.050;2022-08-24T00:57:23;8.10;;;4.45;;
35257;SDS011;21385;50.878;8.050;2022-08-24T00:59:55;6.60;;;3.97;;
35257;SDS011;21385;50.878;8.050;2022-08-24T01:02:32;9.80;;;4.55;;
35257;SDS011;21385;50.878;8.050;2022-08-24T01:05:03;9.82;;;4.32;;
35257;SDS011;21385;50.878;8.050;2022-08-24T01:07:31;7.47;;;4.82;;
35257;SDS011;21385;50.878;8.050;2022-08-24T01:10:00;7.70;;;4.10;;
35257;SDS011;21385;50.878;8.050;2022-08-24T01:14:55;5.97;;;4.30;;
35257;SDS011;21385;50.878;8.050;2022-08-24T01:17:23;6.03;;;4.13;;
35257;SDS011;21385;50.878;8.050;2022-08-24T01:20:07;6.50;;;4.40;;
35257;SDS011;21385;50.878;8.050;2022-08-24T01:22:39;6.82;;;3.75;;
35257;SDS011;21385;50.878;8.050;2022-08-24T01:25:32;5.57;;;3.95;;
35257;SDS011;21385;50.878;8.050;2022-08-24T01:28:02;5.40;;;3.75;;
35257;SDS011;21385;50.878;8.050;2022-08-24T01:30:30;7.32;;;4.00;;
35257;SDS011;21385;50.878;8.050;2022-08-24T01:33:02;6.38;;;4.25;;
35257;SDS011;21385;50.878;8.050;2022-08-24T01:35:31;6.35;;;3.80;;
35257;SDS011;21385;50.878;8.050;2022-08-24T01:37:57;5.10;;;3.65;;
35257;SDS011;21385;50.878;8.050;2022-08-24T01:40:27;7.68;;;3.67;;
35257;SDS011;21385;50.878;8.050;2022-08-24T01:42:58;7.00;;;3.85;;
35257;SDS011;21385;50.878;8.050;2022-08-24T01:45:24;4.65;;;3.65;;
35257;SDS011;21385;50.878;8.050;2022-08-24T01:47:50;4.18;;;3.08;;
35257;SDS011;21385;50.878;8.050;2022-08-24T01:50:16;5.47;;;3.40;;
35257;SDS011;21385;50.878;8.050;2022-08-24T01:52:42;4.68;;;2.90;;
35257;SDS011;21385;50.878;8.050;2022-08-24T01:55:13;4.88;;;3.35;;
35257;SDS011;21385;50.878;8.050;2022-08-24T01:57:40;4.55;;;3.35;;
35257;SDS011;21385;50.878;8.050;2022-08-24T02:00:08;6.47;;;3.42;;
35257;SDS011;21385;50.878;8.050;2022-08-24T02:02:38;4.03;;;2.75;;
35257;SDS011;21385;50.878;8.050;2022-08-24T02:05:05;3.90;;;2.85;;
35257;SDS011;21385;50.878;8.050;2022-08-24T02:07:32;4.30;;;3.10;;
35257;SDS011;21385;50.878;8.050;2022-08-24T02:09:57;4.97;;;2.80;;
35257;SDS011;21385;50.878;8.050;2022-08-24T02:12:23;3.75;;;3.00;;
35257;SDS011;21385;50.878;8.050;2022-08-24T02:14:49;5.93;;;3.45;;
35257;SDS011;21385;50.878;8.050;2022-08-24T02:17:15;7.35;;;3.25;;
35257;SDS011;21385;50.878;8.050;2022-08-24T02:19:42;5.57;;;3.45;;
35257;SDS011;21385;50.878;8.050;2022-08-24T02:22:08;5.97;;;3.83;;
35257;SDS011;21385;50.878;8.050;2022-08-24T02:24:34;4.20;;;3.75;;
35257;SDS011;21385;50.878;8.050;2022-08-24T02:26:59;6.88;;;3.55;;
35257;SDS011;21385;50.878;8.050;2022-08-24T02:29:26;7.18;;;3.40;;
35257;SDS011;21385;50.878;8.050;2022-08-24T02:31:52;4.07;;;3.15;;
35257;SDS011;21385;50.878;8.050;2022-08-24T02:34:18;3.92;;;2.95;;
35257;SDS011;21385;50.878;8.050;2022-08-24T02:36:44;3.65;;;2.83;;
35257;SDS011;21385;50.878;8.050;2022-08-24T02:39:09;6.13;;;3.40;;
35257;SDS011;21385;50.878;8.050;2022-08-24T02:41:35;4.65;;;3.53;;
35257;SDS011;21385;50.878;8.050;2022-08-24T02:44:02;7.30;;;3.67;;
35257;SDS011;21385;50.878;8.050;2022-08-24T02:46:29;3.78;;;2.85;;
35257;SDS011;21385;50.878;8.050;2022-08-24T02:48:55;9.32;;;4.30;;
35257;SDS011;21385;50.878;8.050;2022-08-24T02:51:27;4.50;;;2.92;;
35257;SDS011;21385;50.878;8.050;2022-08-24T02:53:55;8.73;;;3.65;;
35257;SDS011;21385;50.878;8.050;2022-08-24T02:56:22;4.70;;;3.65;;
35257;SDS011;21385;50.878;8.050;2022-08-24T02:58:47;5.82;;;3.63;;
35257;SDS011;21385;50.878;8.050;2022-08-24T03:01:14;5.80;;;4.10;;
35257;SDS011;21385;50.878;8.050;2022-08-24T03:03:41;7.50;;;4.80;;
35257;SDS011;21385;50.878;8.050;2022-08-24T03:06:07;8.75;;;3.80;;
35257;SDS011;21385;50.878;8.050;2022-08-24T03:08:34;10.32;;;4.15;;
35257;SDS011;21385;50.878;8.050;2022-08-24T03:11:00;5.68;;;3.75;;
35257;SDS011;21385;50.878;8.050;2022-08-24T03:13:27;7.32;;;4.13;;
35257;SDS011;21385;50.878;8.050;2022-08-24T03:15:54;5.90;;;3.72;;
35257;SDS011;21385;50.878;8.050;2022-08-24T03:18:21;8.10;;;4.25;;
35257;SDS011;21385;50.878;8.050;2022-08-24T03:20:49;9.70;;;4.50;;
35257;SDS011;21385;50.878;8.050;2022-08-24T03:23:15;8.27;;;5.22;;
35257;SDS011;21385;50.878;8.050;2022-08-24T03:25:41;6.13;;;4.18;;
35257;SDS011;21385;50.878;8.050;2022-08-24T03:28:08;10.85;;;4.88;;
35257;SDS011;21385;50.878;8.050;2022-08-24T03:30:33;9.30;;;4.95;;
35257;SDS011;21385;50.878;8.050;2022-08-24T03:32:59;10.73;;;4.30;;
35257;SDS011;21385;50.878;8.050;2022-08-24T03:35:25;10.82;;;4.47;;
35257;SDS011;21385;50.878;8.050;2022-08-24T03:37:50;5.88;;;4.38;;
35257;SDS011;21385;50.878;8.050;2022-08-24T03:40:17;8.30;;;3.97;;
35257;SDS011;21385;50.878;8.050;2022-08-24T03:42:44;5.60;;;4.13;;
35257;SDS011;21385;50.878;8.050;2022-08-24T03:45:10;7.57;;;3.75;;
35257;SDS011;21385;50.878;8.050;2022-08-24T03:47:35;6.80;;;3.60;;
35257;SDS011;21385;50.878;8.050;2022-08-24T03:50:02;7.18;;;3.90;;
35257;SDS011;21385;50.878;8.050;2022-08-24T03:52:29;5.57;;;4.10;;
35257;SDS011;21385;50.878;8.050;2022-08-24T03:54:54;6.45;;;3.72;;
35257;SDS011;21385;50.878;8.050;2022-08-24T03:57:20;4.90;;;3.92;;
35257;SDS011;21385;50.878;8.050;2022-08-24T03:59:46;5.93;;;4.50;;
35257;SDS011;21385;50.878;8.050;2022-08-24T04:02:13;7.82;;;5.50;;
35257;SDS011;21385;50.878;8.050;2022-08-24T04:04:38;12.10;;;6.50;;
35257;SDS011;21385;50.878;8.050;2022-08-24T04:07:04;9.38;;;6.53;;
35257;SDS011;21385;50.878;8.050;2022-08-24T04:09:30;9.27;;;5.88;;
35257;SDS011;21385;50.878;8.050;2022-08-24T04:11:55;14.35;;;5.60;;
35257;SDS011;21385;50.878;8.050;2022-08-24T04:14:21;7.78;;;5.20;;
35257;SDS011;21385;50.878;8.050;2022-08-24T04:16:46;7.47;;;4.85;;
35257;SDS011;21385;50.878;8.050;2022-08-24T04:19:12;11.25;;;4.80;;
35257;SDS011;21385;50.878;8.050;2022-08-24T04:21:38;8.52;;;4.60;;
35257;SDS011;21385;50.878;8.050;2022-08-24T04:24:05;6.32;;;4.35;;
35257;SDS011;21385;50.878;8.050;2022-08-24T04:26:32;10.05;;;4.97;;
35257;SDS011;21385;50.878;8.050;2022-08-24T04:29:00;8.70;;;4.47;;
35257;SDS011;21385;50.878;8.050;2022-08-24T04:31:27;10.70;;;4.53;;
35257;SDS011;21385;50.878;8.050;2022-08-24T04:33:55;8.40;;;4.28;;
35257;SDS011;21385;50.878;8.050;2022-08-24T04:36:21;9.60;;;4.68;;
35257;SDS011;21385;50.878;8.050;2022-08-24T04:38:48;6.03;;;3.75;;
35257;SDS011;21385;50.878;8.050;2022-08-24T04:41:14;7.10;;;4.30;;
35257;SDS011;21385;50.878;8.050;2022-08-24T04:43:44;6.50;;;3.80;;
35257;SDS011;21385;50.878;8.050;2022-08-24T04:46:11;7.13;;;4.43;;
35257;SDS011;21385;50.878;8.050;2022-08-24T04:48:39;7.20;;;3.28;;
35257;SDS011;21385;50.878;8.050;2022-08-24T04:51:06;7.88;;;3.88;;
35257;SDS011;21385;50.878;8.050;2022-08-24T04:53:33;9.50;;;3.75;;
35257;SDS011;21385;50.878;8.050;2022-08-24T04:56:00;16.25;;;4.80;;
35257;SDS011;21385;50.878;8.050;2022-08-24T04:58:26;7.97;;;3.50;;
35257;SDS011;21385;50.878;8.050;2022-08-24T05:00:54;9.60;;;3.70;;
35257;SDS011;21385;50.878;8.050;2022-08-24T05:03:20;5.60;;;3.80;;
35257;SDS011;21385;50.878;8.050;2022-08-24T05:05:47;5.55;;;4.20;;
35257;SDS011;21385;50.878;8.050;2022-08-24T05:08:14;7.10;;;4.72;;
35257;SDS011;21385;50.878;8.050;2022-08-24T05:10:42;6.18;;;4.28;;
35257;SDS011;21385;50.878;8.050;2022-08-24T05:13:10;7.53;;;4.57;;
35257;SDS011;21385;50.878;8.050;2022-08-24T05:15:39;5.95;;;4.38;;
35257;SDS011;21385;50.878;8.050;2022-08-24T05:18:06;8.27;;;4.75;;
35257;SDS011;21385;50.878;8.050;2022-08-24T05:20:32;7.93;;;4.65;;
35257;SDS011;21385;50.878;8.050;2022-08-24T05:22:59;7.13;;;4.53;;
35257;SDS011;21385;50.878;8.050;2022-08-24T05:25:26;9.35;;;4.40;;
35257;SDS011;21385;50.878;8.050;2022-08-24T05:27:52;9.32;;;4.43;;
35257;SDS011;21385;50.878;8.050;2022-08-24T05:30:18;8.68;;;4.70;;
35257;SDS011;21385;50.878;8.050;2022-08-24T05:32:44;7.70;;;4.40;;
35257;SDS011;21385;50.878;8.050;2022-08-24T05:35:10;5.28;;;3.60;;
35257;SDS011;21385;50.878;8.050;2022-08-24T05:37:36;6.80;;;4.07;;
35257;SDS011;21385;50.878;8.050;2022-08-24T05:40:03;6.22;;;4.10;;
35257;SDS011;21385;50.878;8.050;2022-08-24T05:42:31;6.13;;;4.50;;
35257;SDS011;21385;50.878;8.050;2022-08-24T05:44:56;5.75;;;3.83;;
35257;SDS011;21385;50.878;8.050;2022-08-24T05:47:22;6.72;;;4.55;;
35257;SDS011;21385;50.878;8.050;2022-08-24T05:49:48;7.30;;;4.80;;
35257;SDS011;21385;50.878;8.050;2022-08-24T05:52:17;7.25;;;4.25;;
35257;SDS011;21385;50.878;8.050;2022-08-24T05:54:43;6.90;;;4.32;;
35257;SDS011;21385;50.878;8.050;2022-08-24T05:57:08;9.25;;;4.57;;
35257;SDS011;21385;50.878;8.050;2022-08-24T05:59:34;8.05;;;4.65;;
35257;SDS011;21385;50.878;8.050;2022-08-24T06:02:00;11.88;;;4.80;;
35257;SDS011;21385;50.878;8.050;2022-08-24T06:04:26;11.73;;;4.53;;
35257;SDS011;21385;50.878;8.050;2022-08-24T06:06:53;9.25;;;4.70;;
35257;SDS011;21385;50.878;8.050;2022-08-24T06:09:18;9.30;;;4.68;;
35257;SDS011;21385;50.878;8.050;2022-08-24T06:11:45;8.55;;;4.82;;
35257;SDS011;21385;50.878;8.050;2022-08-24T06:14:12;9.07;;;4.80;;
35257;SDS011;21385;50.878;8.050;2022-08-24T06:16:41;10.52;;;5.05;;
35257;SDS011;21385;50.878;8.050;2022-08-24T06:19:09;7.20;;;4.72;;
35257;SDS011;21385;50.878;8.050;2022-08-24T06:21:36;7.40;;;4.63;;
35257;SDS011;21385;50.878;8.050;2022-08-24T06:24:03;9.85;;;4.50;;
35257;SDS011;21385;50.878;8.050;2022-08-24T06:26:30;6.72;;;4.22;;
35257;SDS011;21385;50.878;8.050;2022-08-24T06:29:14;6.20;;;4.60;;
35257;SDS011;21385;50.878;8.050;2022-08-24T06:31:41;10.65;;;4.90;;
35257;SDS011;21385;50.878;8.050;2022-08-24T06:34:09;10.20;;;5.63;;
35257;SDS011;21385;50.878;8.050;2022-08-24T06:36:36;8.48;;;4.88;;
35257;SDS011;21385;50.878;8.050;2022-08-24T06:39:02;6.70;;;5.10;;
35257;SDS011;21385;50.878;8.050;2022-08-24T06:41:28;13.40;;;5.10;;
35257;SDS011;21385;50.878;8.050;2022-08-24T06:43:54;6.10;;;3.92;;
35257;SDS011;21385;50.878;8.050;2022-08-24T06:46:19;13.63;;;5.25;;
35257;SDS011;21385;50.878;8.050;2022-08-24T06:48:45;9.15;;;4.28;;
35257;SDS011;21385;50.878;8.050;2022-08-24T06:51:11;10.52;;;3.85;;
35257;SDS011;21385;50.878;8.050;2022-08-24T06:53:39;9.10;;;3.65;;
35257;SDS011;21385;50.878;8.050;2022-08-24T06:56:05;7.13;;;3.95;;
35257;SDS011;21385;50.878;8.050;2022-08-24T06:58:32;6.45;;;3.33;;
35257;SDS011;21385;50.878;8.050;2022-08-24T07:01:06;8.63;;;2.50;;
35257;SDS011;21385;50.878;8.050;2022-08-24T07:03:35;5.50;;;2.13;;
35257;SDS011;21385;50.878;8.050;2022-08-24T07:06:01;3.30;;;2.05;;
35257;SDS011;21385;50.878;8.050;2022-08-24T07:08:28;4.78;;;1.45;;
35257;SDS011;21385;50.878;8.050;2022-08-24T07:10:56;7.00;;;1.92;;
35257;SDS011;21385;50.878;8.050;2022-08-24T07:13:22;5.00;;;2.08;;
35257;SDS011;21385;50.878;8.050;2022-08-24T07:15:49;2.63;;;1.55;;
35257;SDS011;21385;50.878;8.050;2022-08-24T07:18:16;3.10;;;1.45;;
35257;SDS011;21385;50.878;8.050;2022-08-24T07:20:43;6.57;;;1.70;;
35257;SDS011;21385;50.878;8.050;2022-08-24T07:23:10;6.85;;;1.40;;
35257;SDS011;21385;50.878;8.050;2022-08-24T07:25:38;3.67;;;1.60;;
35257;SDS011;21385;50.878;8.050;2022-08-24T07:28:08;5.07;;;1.30;;
35257;SDS011;21385;50.878;8.050;2022-08-24T07:30:35;2.10;;;1.27;;
35257;SDS011;21385;50.878;8.050;2022-08-24T07:33:01;4.72;;;1.35;;
35257;SDS011;21385;50.878;8.050;2022-08-24T07:35:27;2.42;;;1.42;;
35257;SDS011;21385;50.878;8.050;2022-08-24T07:37:54;5.72;;;1.67;;
35257;SDS011;21385;50.878;8.050;2022-08-24T07:40:21;2.42;;;1.30;;
35257;SDS011;21385;50.878;8.050;2022-08-24T07:42:48;3.85;;;1.38;;
35257;SDS011;21385;50.878;8.050;2022-08-24T07:45:15;5.25;;;1.50;;
35257;SDS011;21385;50.878;8.050;2022-08-24T07:47:41;2.13;;;1.42;;
35257;SDS011;21385;50.878;8.050;2022-08-24T07:50:07;1.63;;;1.30;;
35257;SDS011;21385;50.878;8.050;2022-08-24T07:52:36;2.30;;;1.38;;
35257;SDS011;21385;50.878;8.050;2022-08-24T07:55:02;3.95;;;1.25;;
35257;SDS011;21385;50.878;8.050;2022-08-24T07:57:29;2.60;;;1.58;;
35257;SDS011;21385;50.878;8.050;2022-08-24T07:59:57;2.45;;;1.30;;
35257;SDS011;21385;50.878;8.050;2022-08-24T08:02:23;3.47;;;1.23;;
35257;SDS011;21385;50.878;8.050;2022-08-24T08:04:49;1.60;;;1.10;;
35257;SDS011;21385;50.878;8.050;2022-08-24T08:07:15;4.60;;;1.30;;
35257;SDS011;21385;50.878;8.050;2022-08-24T08:09:41;1.58;;;1.42;;
35257;SDS011;21385;50.878;8.050;2022-08-24T08:12:07;5.38;;;1.50;;
35257;SDS011;21385;50.878;8.050;2022-08-24T08:14:33;2.10;;;1.27;;
35257;SDS011;21385;50.878;8.050;2022-08-24T08:16:59;2.47;;;1.30;;
35257;SDS011;21385;50.878;8.050;2022-08-24T08:19:26;2.83;;;1.20;;
35257;SDS011;21385;50.878;8.050;2022-08-24T08:21:52;1.77;;;1.02;;
35257;SDS011;21385;50.878;8.050;2022-08-24T08:24:38;2.28;;;1.45;;
35257;SDS011;21385;50.878;8.050;2022-08-24T08:27:07;3.53;;;1.30;;
35257;SDS011;21385;50.878;8.050;2022-08-24T08:29:35;3.53;;;1.40;;
35257;SDS011;21385;50.878;8.050;2022-08-24T08:32:03;2.75;;;1.25;;
35257;SDS011;21385;50.878;8.050;2022-08-24T08:34:29;2.00;;;1.10;;
35257;SDS011;21385;50.878;8.050;2022-08-24T08:36:55;3.63;;;1.40;;
35257;SDS011;21385;50.878;8.050;2022-08-24T08:39:21;2.50;;;1.60;;
35257;SDS011;21385;50.878;8.050;2022-08-24T08:55:41;2.85;;;1.38;;
35257;SDS011;21385;50.878;8.050;2022-08-24T09:01:23;1.85;;;1.35;;
35257;SDS011;21385;50.878;8.050;2022-08-24T09:04:10;3.00;;;1.20;;
35257;SDS011;21385;50.878;8.050;2022-08-24T09:14:58;3.45;;;1.70;;
35257;SDS011;21385;50.878;8.050;2022-08-24T09:17:55;2.90;;;1.63;;
35257;SDS011;21385;50.878;8.050;2022-08-24T09:28:46;3.03;;;1.50;;
35257;SDS011;21385;50.878;8.050;2022-08-24T09:39:55;2.70;;;1.30;;
35257;SDS011;21385;50.878;8.050;2022-08-24T10:01:59;2.45;;;1.60;;
35257;SDS011;21385;50.878;8.050;2022-08-24T10:05:02;3.30;;;1.45;;
35257;SDS011;21385;50.878;8.050;2022-08-24T10:07:49;4.00;;;1.58;;
35257;SDS011;21385;50.878;8.050;2022-08-24T10:15:47;5.53;;;1.60;;
35257;SDS011;21385;50.878;8.050;2022-08-24T10:18:29;2.97;;;1.55;;
35257;SDS011;21385;50.878;8.050;2022-08-24T10:22:04;4.25;;;1.60;;
35257;SDS011;21385;50.878;8.050;2022-08-24T10:24:29;3.08;;;1.73;;
35257;SDS011;21385;50.878;8.050;2022-08-24T10:27:12;2.70;;;1.60;;
35257;SDS011;21385;50.878;8.050;2022-08-24T10:30:20;1.77;;;1.50;;
35257;SDS011;21385;50.878;8.050;2022-08-24T10:35:30;3.58;;;1.50;;
35257;SDS011;21385;50.878;8.050;2022-08-24T10:38:21;5.07;;;1.85;;
35257;SDS011;21385;50.878;8.050;2022-08-24T10:44:00;8.40;;;2.33;;
35257;SDS011;21385;50.878;8.050;2022-08-24T10:46:50;4.38;;;1.80;;
35257;SDS011;21385;50.878;8.050;2022-08-24T10:54:27;5.32;;;1.80;;
35257;SDS011;21385;50.878;8.050;2022-08-24T10:57:06;4.68;;;2.00;;
35257;SDS011;21385;50.878;8.050;2022-08-24T11:02:41;3.33;;;1.83;;
35257;SDS011;21385;50.878;8.050;2022-08-24T11:05:10;2.65;;;1.90;;
35257;SDS011;21385;50.878;8.050;2022-08-24T11:10:30;5.55;;;2.10;;
35257;SDS011;21385;50.878;8.050;2022-08-24T11:18:10;4.93;;;2.00;;
35257;SDS011;21385;50.878;8.050;2022-08-24T11:20:40;3.88;;;1.75;;
35257;SDS011;21385;50.878;8.050;2022-08-24T11:25:56;4.30;;;1.90;;
35257;SDS011;21385;50.878;8.050;2022-08-24T11:28:30;2.80;;;1.75;;
35257;SDS011;21385;50.878;8.050;2022-08-24T11:30:58;3.80;;;1.58;;
35257;SDS011;21385;50.878;8.050;2022-08-24T11:35:55;6.20;;;2.13;;
35257;SDS011;21385;50.878;8.050;2022-08-24T11:38:23;5.13;;;2.25;;
35257;SDS011;21385;50.878;8.050;2022-08-24T11:40:56;2.63;;;1.75;;
35257;SDS011;21385;50.878;8.050;2022-08-24T11:49:08;3.17;;;2.05;;
35257;SDS011;21385;50.878;8.050;2022-08-24T11:55:01;3.55;;;1.88;;
35257;SDS011;21385;50.878;8.050;2022-08-24T12:00:20;6.25;;;2.08;;
35257;SDS011;21385;50.878;8.050;2022-08-24T12:08:08;2.67;;;1.70;;
35257;SDS011;21385;50.878;8.050;2022-08-24T12:14:05;4.10;;;1.60;;
35257;SDS011;21385;50.878;8.050;2022-08-24T12:21:35;3.35;;;1.70;;
35257;SDS011;21385;50.878;8.050;2022-08-24T12:24:04;3.67;;;1.92;;
35257;SDS011;21385;50.878;8.050;2022-08-24T12:26:41;4.03;;;1.75;;
35257;SDS011;21385;50.878;8.050;2022-08-24T12:29:11;2.78;;;1.95;;
35257;SDS011;21385;50.878;8.050;2022-08-24T12:32:02;2.42;;;1.98;;
35257;SDS011;21385;50.878;8.050;2022-08-24T12:37:02;2.97;;;2.03;;
35257;SDS011;21385;50.878;8.050;2022-08-24T12:39:35;4.30;;;1.90;;
35257;SDS011;21385;50.878;8.050;2022-08-24T12:44:42;2.85;;;1.70;;
35257;SDS011;21385;50.878;8.050;2022-08-24T12:47:21;4.00;;;1.88;;
35257;SDS011;21385;50.878;8.050;2022-08-24T12:50:10;3.90;;;1.90;;
35257;SDS011;21385;50.878;8.050;2022-08-24T12:58:07;3.03;;;1.48;;
35257;SDS011;21385;50.878;8.050;2022-08-24T13:00:47;5.03;;;1.80;;
35257;SDS011;21385;50.878;8.050;2022-08-24T13:03:33;2.00;;;1.60;;
35257;SDS011;21385;50.878;8.050;2022-08-24T13:06:02;2.47;;;2.00;;
35257;SDS011;21385;50.878;8.050;2022-08-24T13:08:36;3.90;;;1.58;;
35257;SDS011;21385;50.878;8.050;2022-08-24T13:11:12;5.13;;;2.10;;
35257;SDS011;21385;50.878;8.050;2022-08-24T13:16:14;6.60;;;1.52;;
35257;SDS011;21385;50.878;8.050;2022-08-24T13:29:36;4.10;;;1.70;;
35257;SDS011;21385;50.878;8.050;2022-08-24T13:32:05;2.80;;;1.60;;
35257;SDS011;21385;50.878;8.050;2022-08-24T13:53:46;2.22;;;1.70;;
35257;SDS011;21385;50.878;8.050;2022-08-24T13:56:20;5.85;;;1.50;;
35257;SDS011;21385;50.878;8.050;2022-08-24T14:01:49;3.33;;;1.63;;
35257;SDS011;21385;50.878;8.050;2022-08-24T14:32:28;2.58;;;1.75;;
35257;SDS011;21385;50.878;8.050;2022-08-24T14:34:51;3.33;;;1.60;;
35257;SDS011;21385;50.878;8.050;2022-08-24T14:37:51;2.33;;;1.30;;
35257;SDS011;21385;50.878;8.050;2022-08-24T14:40:36;3.38;;;1.60;;
35257;SDS011;21385;50.878;8.050;2022-08-24T14:49:15;2.42;;;1.95;;
35257;SDS011;21385;50.878;8.050;2022-08-24T14:51:57;2.45;;;1.48;;
35257;SDS011;21385;50.878;8.050;2022-08-24T14:54:48;3.10;;;1.30;;
35257;SDS011;21385;50.878;8.050;2022-08-24T14:57:37;5.20;;;2.00;;
35257;SDS011;21385;50.878;8.050;2022-08-24T15:10:27;2.85;;;1.40;;
35257;SDS011;21385;50.878;8.050;2022-08-24T15:13:02;4.55;;;1.50;;
35257;SDS011;21385;50.878;8.050;2022-08-24T15:15:44;4.18;;;1.52;;
35257;SDS011;21385;50.878;8.050;2022-08-24T15:21:28;3.38;;;1.25;;
35257;SDS011;21385;50.878;8.050;2022-08-24T15:26:38;4.95;;;1.60;;
35257;SDS011;21385;50.878;8.050;2022-08-24T15:29:26;3.58;;;1.27;;
35257;SDS011;21385;50.878;8.050;2022-08-24T15:37:07;3.00;;;1.83;;
35257;SDS011;21385;50.878;8.050;2022-08-24T15:39:34;2.88;;;1.48;;
35257;SDS011;21385;50.878;8.050;2022-08-24T15:42:05;5.30;;;1.48;;
35257;SDS011;21385;50.878;8.050;2022-08-24T15:44:34;3.25;;;1.48;;
35257;SDS011;21385;50.878;8.050;2022-08-24T15:47:08;3.92;;;1.42;;
35257;SDS011;21385;50.878;8.050;2022-08-24T15:50:01;3.22;;;1.08;;
35257;SDS011;21385;50.878;8.050;2022-08-24T15:52:37;2.42;;;1.40;;
35257;SDS011;21385;50.878;8.050;2022-08-24T15:55:28;1.75;;;1.48;;
35257;SDS011;21385;50.878;8.050;2022-08-24T15:58:13;3.38;;;1.52;;
35257;SDS011;21385;50.878;8.050;2022-08-24T16:01:21;2.50;;;1.42;;
35257;SDS011;21385;50.878;8.050;2022-08-24T16:04:11;8.38;;;1.80;;
35257;SDS011;21385;50.878;8.050;2022-08-24T16:14:36;1.98;;;1.50;;
35257;SDS011;21385;50.878;8.050;2022-08-24T16:20:00;4.40;;;1.60;;
35257;SDS011;21385;50.878;8.050;2022-08-24T16:22:39;5.60;;;2.08;;
35257;SDS011;21385;50.878;8.050;2022-08-24T16:36:04;3.15;;;1.67;;
35257;SDS011;21385;50.878;8.050;2022-08-24T16:38:33;3.45;;;1.92;;
35257;SDS011;21385;50.878;8.050;2022-08-24T16:41:04;2.53;;;1.42;;
35257;SDS011;21385;50.878;8.050;2022-08-24T16:43:33;2.90;;;1.60;;
35257;SDS011;21385;50.878;8.050;2022-08-24T16:46:00;3.25;;;1.80;;
35257;SDS011;21385;50.878;8.050;2022-08-24T16:48:28;5.72;;;1.90;;
35257;SDS011;21385;50.878;8.050;2022-08-24T16:50:54;5.05;;;1.75;;
35257;SDS011;21385;50.878;8.050;2022-08-24T16:53:21;8.95;;;1.92;;
35257;SDS011;21385;50.878;8.050;2022-08-24T16:55:47;5.25;;;1.70;;
35257;SDS011;21385;50.878;8.050;2022-08-24T16:58:13;6.45;;;2.90;;
35257;SDS011;21385;50.878;8.050;2022-08-24T17:00:39;3.20;;;2.45;;
35257;SDS011;21385;50.878;8.050;2022-08-24T17:03:05;9.20;;;3.30;;
35257;SDS011;21385;50.878;8.050;2022-08-24T17:05:31;7.80;;;3.60;;
35257;SDS011;21385;50.878;8.050;2022-08-24T17:07:57;4.15;;;2.30;;
35257;SDS011;21385;50.878;8.050;2022-08-24T17:10:25;4.10;;;1.95;;
35257;SDS011;21385;50.878;8.050;2022-08-24T17:12:51;6.35;;;1.85;;
35257;SDS011;21385;50.878;8.050;2022-08-24T17:15:17;6.20;;;2.00;;
35257;SDS011;21385;50.878;8.050;2022-08-24T17:17:46;3.50;;;1.50;;
35257;SDS011;21385;50.878;8.050;2022-08-24T17:20:18;4.43;;;1.52;;
35257;SDS011;21385;50.878;8.050;2022-08-24T17:22:44;8.25;;;3.00;;
35257;SDS011;21385;50.878;8.050;2022-08-24T17:25:10;9.20;;;5.03;;
35257;SDS011;21385;50.878;8.050;2022-08-24T17:27:36;25.63;;;14.30;;
35257;SDS011;21385;50.878;8.050;2022-08-24T17:30:02;10.20;;;5.32;;
35257;SDS011;21385;50.878;8.050;2022-08-24T17:32:29;6.68;;;2.92;;
35257;SDS011;21385;50.878;8.050;2022-08-24T17:34:55;5.38;;;2.55;;
35257;SDS011;21385;50.878;8.050;2022-08-24T17:37:20;2.75;;;1.80;;
35257;SDS011;21385;50.878;8.050;2022-08-24T17:39:49;3.08;;;1.83;;
35257;SDS011;21385;50.878;8.050;2022-08-24T17:42:20;9.48;;;2.75;;
35257;SDS011;21385;50.878;8.050;2022-08-24T17:44:46;6.72;;;2.03;;
35257;SDS011;21385;50.878;8.050;2022-08-24T17:47:12;4.43;;;1.80;;
35257;SDS011;21385;50.878;8.050;2022-08-24T17:49:38;4.18;;;1.60;;
35257;SDS011;21385;50.878;8.050;2022-08-24T17:52:04;6.18;;;2.28;;
35257;SDS011;21385;50.878;8.050;2022-08-24T17:54:30;4.80;;;1.40;;
35257;SDS011;21385;50.878;8.050;2022-08-24T17:56:56;4.70;;;2.17;;
35257;SDS011;21385;50.878;8.050;2022-08-24T17:59:27;4.32;;;1.70;;
35257;SDS011;21385;50.878;8.050;2022-08-24T18:01:57;4.13;;;2.05;;
35257;SDS011;21385;50.878;8.050;2022-08-24T18:04:25;9.40;;;2.60;;
35257;SDS011;21385;50.878;8.050;2022-08-24T18:06:54;7.80;;;4.03;;
35257;SDS011;21385;50.878;8.050;2022-08-24T18:12:17;7.03;;;5.25;;
35257;SDS011;21385;50.878;8.050;2022-08-24T18:14:44;3.65;;;2.05;;
35257;SDS011;21385;50.878;8.050;2022-08-24T18:17:11;4.20;;;1.48;;
35257;SDS011;21385;50.878;8.050;2022-08-24T18:19:41;7.55;;;1.20;;
35257;SDS011;21385;50.878;8.050;2022-08-24T18:22:08;3.00;;;1.33;;
35257;SDS011;21385;50.878;8.050;2022-08-24T18:24:34;2.75;;;1.45;;
35257;SDS011;21385;50.878;8.050;2022-08-24T18:27:02;5.40;;;1.40;;
35257;SDS011;21385;50.878;8.050;2022-08-24T18:29:40;6.10;;;1.60;;
35257;SDS011;21385;50.878;8.050;2022-08-24T18:32:07;3.40;;;1.25;;
35257;SDS011;21385;50.878;8.050;2022-08-24T18:34:34;3.45;;;1.52;;
35257;SDS011;21385;50.878;8.050;2022-08-24T18:37:00;4.63;;;1.10;;
35257;SDS011;21385;50.878;8.050;2022-08-24T18:39:25;5.25;;;1.27;;
35257;SDS011;21385;50.878;8.050;2022-08-24T18:41:51;5.82;;;1.20;;
35257;SDS011;21385;50.878;8.050;2022-08-24T18:44:19;4.65;;;1.58;;
35257;SDS011;21385;50.878;8.050;2022-08-24T18:46:46;4.13;;;1.30;;
35257;SDS011;21385;50.878;8.050;2022-08-24T18:49:12;4.93;;;1.20;;
35257;SDS011;21385;50.878;8.050;2022-08-24T18:51:43;3.92;;;1.48;;
35257;SDS011;21385;50.878;8.050;2022-08-24T18:54:10;1.42;;;1.17;;
35257;SDS011;21385;50.878;8.050;2022-08-24T18:59:06;8.98;;;1.85;;
35257;SDS011;21385;50.878;8.050;2022-08-24T19:01:34;3.05;;;1.30;;
35257;SDS011;21385;50.878;8.050;2022-08-24T19:04:18;3.13;;;1.75;;
35257;SDS011;21385;50.878;8.050;2022-08-24T19:06:44;2.78;;;1.40;;
35257;SDS011;21385;50.878;8.050;2022-08-24T19:09:09;3.40;;;1.20;;
35257;SDS011;21385;50.878;8.050;2022-08-24T19:11:35;3.58;;;1.17;;
35257;SDS011;21385;50.878;8.050;2022-08-24T19:14:00;3.80;;;1.48;;